createdAt,value
2022-11-13T00:00:31.730Z,47.10
2022-11-13T00:03:38.926Z,45.35
2022-11-13T00:06:43.203Z,45.10
2022-11-13T00:09:47.458Z,44.72
2022-11-13T00:12:56.726Z,43.60
2022-11-13T00:16:05.352Z,43.70
2022-11-13T00:19:09.533Z,43.25
2022-11-13T00:22:13.868Z,43.20
2022-11-13T00:25:21.080Z,43.00
2022-11-13T00:28:25.838Z,44.35
2022-11-13T00:31:31.337Z,40.70
2022-11-13T00:34:50.758Z,38.05
2022-11-13T00:37:55.127Z,38.10
2022-11-13T00:41:02.424Z,39.45
2022-11-13T00:44:06.975Z,37.15
2022-11-13T00:47:16.494Z,37.10
2022-11-13T00:50:20.578Z,37.88
2022-11-13T00:53:25.105Z,35.40
2022-11-13T00:56:29.557Z,37.03
2022-11-13T00:59:34.065Z,35.85
2022-11-13T01:02:38.190Z,33.63
2022-11-13T01:05:44.816Z,36.10
2022-11-13T01:08:49.764Z,33.47
2022-11-13T01:11:54.635Z,34.53
2022-11-13T01:14:59.705Z,33.03
2022-11-13T01:18:04.328Z,33.47
2022-11-13T01:21:11.842Z,32.47
2022-11-13T01:24:16.087Z,32.67
2022-11-13T01:27:20.474Z,31.30
2022-11-13T01:30:24.599Z,31.40
2022-11-13T01:33:32.216Z,30.50
2022-11-13T01:36:36.697Z,29.88
2022-11-13T01:39:44.278Z,29.67
2022-11-13T01:42:48.755Z,27.65
2022-11-13T01:45:58.842Z,28.60
2022-11-13T01:49:12.576Z,27.10
2022-11-13T01:52:27.234Z,25.75
2022-11-13T01:55:31.413Z,26.02
2022-11-13T01:58:40.678Z,25.35
2022-11-13T02:01:45.007Z,24.27
2022-11-13T02:04:49.169Z,26.08
2022-11-13T02:07:53.606Z,25.88
2022-11-13T02:10:58.249Z,26.30
2022-11-13T02:14:04.274Z,24.33
2022-11-13T02:17:13.102Z,25.33
2022-11-13T02:20:27.873Z,25.13
2022-11-13T02:23:48.618Z,24.70
2022-11-13T02:26:55.776Z,25.02
2022-11-13T02:30:12.831Z,24.60
2022-11-13T02:33:30.350Z,25.25
2022-11-13T02:36:35.858Z,24.92
2022-11-13T02:39:40.889Z,24.35
2022-11-13T02:42:45.563Z,24.23
2022-11-13T02:45:49.885Z,24.25
2022-11-13T02:48:54.607Z,24.73
2022-11-13T02:51:58.844Z,24.85
2022-11-13T02:55:04.206Z,25.95
2022-11-13T02:58:08.301Z,25.00
2022-11-13T03:01:12.996Z,25.75
2022-11-13T03:04:17.428Z,25.38
2022-11-13T03:07:21.710Z,26.27
2022-11-13T03:10:26.163Z,25.88
2022-11-13T03:13:32.204Z,27.25
2022-11-13T03:16:36.741Z,25.85
2022-11-13T03:19:41.222Z,27.23
2022-11-13T03:22:45.623Z,24.83
2022-11-13T03:25:49.883Z,24.42
2022-11-13T03:28:54.574Z,24.13
2022-11-13T03:31:58.822Z,24.73
2022-11-13T03:35:03.481Z,22.27
2022-11-13T03:38:07.774Z,22.63
2022-11-13T03:41:14.805Z,22.48
2022-11-13T03:44:19.256Z,24.08
2022-11-13T03:47:23.623Z,23.35
2022-11-13T03:50:28.030Z,22.95
2022-11-13T03:53:32.694Z,25.00
2022-11-13T03:56:36.743Z,25.08
2022-11-13T03:59:41.009Z,24.83
2022-11-13T04:02:45.382Z,24.23
2022-11-13T04:05:50.756Z,25.02
2022-11-13T04:08:54.947Z,24.52
2022-11-13T04:11:59.395Z,24.30
2022-11-13T04:15:04.035Z,24.40
2022-11-13T04:18:11.728Z,23.88
2022-11-13T04:21:18.561Z,23.88
2022-11-13T04:24:22.835Z,23.33
2022-11-13T04:27:27.390Z,23.25
2022-11-13T04:30:31.750Z,22.17
2022-11-13T04:33:36.289Z,22.95
2022-11-13T04:36:40.373Z,21.83
2022-11-13T04:39:45.125Z,21.52
2022-11-13T04:42:52.198Z,20.00
2022-11-13T04:45:56.556Z,21.00
2022-11-13T04:49:01.138Z,21.05
2022-11-13T04:52:08.906Z,20.52
2022-11-13T04:55:13.603Z,22.00
2022-11-13T04:58:17.821Z,21.95
2022-11-13T05:01:22.669Z,20.55
2022-11-13T05:04:26.663Z,21.73
2022-11-13T05:07:31.286Z,20.15
2022-11-13T05:10:35.689Z,21.10
2022-11-13T05:13:39.995Z,19.83
2022-11-13T05:16:44.951Z,19.90
2022-11-13T05:19:49.133Z,18.77
2022-11-13T05:22:53.746Z,19.52
2022-11-13T05:26:04.268Z,20.27
2022-11-13T05:29:08.889Z,19.50
2022-11-13T05:32:16.023Z,18.13
2022-11-13T05:35:20.861Z,18.20
2022-11-13T05:38:25.495Z,18.13
2022-11-13T05:41:33.118Z,17.08
2022-11-13T05:44:37.356Z,18.23
2022-11-13T05:47:41.782Z,17.08
2022-11-13T05:50:46.274Z,17.38
2022-11-13T05:53:51.202Z,18.77
2022-11-13T05:56:55.119Z,19.45
2022-11-13T05:59:59.387Z,19.88
2022-11-13T06:03:03.795Z,18.77
2022-11-13T06:06:11.465Z,19.48
2022-11-13T06:09:18.903Z,20.88
2022-11-13T06:12:32.931Z,20.70
2022-11-13T06:15:37.478Z,19.58
2022-11-13T06:18:43.411Z,20.20
2022-11-13T06:21:50.442Z,20.05
2022-11-13T06:24:54.722Z,19.85
2022-11-13T06:27:59.163Z,19.48
2022-11-13T06:31:10.638Z,18.17
2022-11-13T06:34:15.639Z,17.35
2022-11-13T06:37:19.819Z,15.65
2022-11-13T06:40:24.192Z,15.50
2022-11-13T06:43:29.090Z,12.55
2022-11-13T06:46:33.589Z,12.32
2022-11-13T06:49:40.823Z,12.07
2022-11-13T06:52:45.298Z,11.88
2022-11-13T06:55:50.775Z,11.65
2022-11-13T06:58:56.181Z,12.63
2022-11-13T07:02:00.476Z,10.93
2022-11-13T07:05:04.914Z,10.63
2022-11-13T07:08:09.229Z,10.57
2022-11-13T07:11:20.228Z,11.45
2022-11-13T07:14:26.959Z,11.10
2022-11-13T07:17:31.513Z,11.50
2022-11-13T07:20:35.793Z,11.02
2022-11-13T07:23:43.286Z,11.10
2022-11-13T07:26:50.485Z,10.70
2022-11-13T07:29:59.521Z,9.98
2022-11-13T07:33:07.367Z,10.65
2022-11-13T07:36:14.493Z,10.75
2022-11-13T07:39:18.769Z,10.05
2022-11-13T07:42:23.286Z,9.30
2022-11-13T07:45:28.811Z,10.30
2022-11-13T07:48:33.057Z,9.88
2022-11-13T07:51:37.714Z,10.10
2022-11-13T07:54:42.510Z,9.77
2022-11-13T07:57:50.003Z,10.13
2022-11-13T08:01:05.432Z,9.25
2022-11-13T08:04:09.631Z,9.27
2022-11-13T08:07:14.323Z,9.60
2022-11-13T08:10:20.202Z,9.55
2022-11-13T08:13:24.864Z,9.50
2022-11-13T08:16:29.369Z,10.02
2022-11-13T08:19:33.500Z,9.68
2022-11-13T08:22:38.035Z,9.50
2022-11-13T08:25:43.974Z,10.00
2022-11-13T08:28:49.035Z,9.15
2022-11-13T08:31:53.575Z,9.13
2022-11-13T08:34:57.606Z,9.65
2022-11-13T08:38:07.002Z,8.75
2022-11-13T08:41:11.546Z,9.05
2022-11-13T08:44:15.623Z,8.15
2022-11-13T08:47:19.928Z,8.68
2022-11-13T08:50:25.941Z,8.77
2022-11-13T08:56:34.134Z,8.93
2022-11-13T08:59:38.761Z,8.95
2022-11-13T09:02:44.474Z,9.25
2022-11-13T09:05:57.918Z,8.73
2022-11-13T09:09:05.059Z,9.30
2022-11-13T09:12:09.238Z,8.63
2022-11-13T09:15:20.313Z,8.88
2022-11-13T09:18:31.426Z,9.05
2022-11-13T09:21:35.684Z,8.57
2022-11-13T09:24:39.795Z,8.68
2022-11-13T09:27:44.014Z,8.55
2022-11-13T09:30:48.710Z,8.93
2022-11-13T09:33:53.341Z,9.00
2022-11-13T09:37:01.881Z,8.40
2022-11-13T09:40:07.751Z,8.27
2022-11-13T09:43:24.882Z,8.32
2022-11-13T09:46:56.396Z,8.68
2022-11-13T09:50:23.075Z,8.27
2022-11-13T09:53:33.672Z,7.63
2022-11-13T09:56:43.622Z,8.32
2022-11-13T10:00:05.700Z,8.77
2022-11-13T10:03:23.990Z,8.80
2022-11-13T10:07:03.849Z,8.93
2022-11-13T10:10:21.770Z,9.00
2022-11-13T10:13:32.763Z,8.23
2022-11-13T10:17:00.537Z,9.07
2022-11-13T10:20:12.535Z,8.48
2022-11-13T10:23:44.279Z,8.48
2022-11-13T10:26:48.992Z,8.85
2022-11-13T10:29:53.374Z,8.50
2022-11-13T10:33:05.923Z,7.97
2022-11-13T10:36:37.877Z,8.43
2022-11-13T10:39:45.863Z,7.85
2022-11-13T10:42:50.460Z,7.90
2022-11-13T10:46:00.835Z,7.32
2022-11-13T10:49:13.951Z,7.65
2022-11-13T10:52:25.212Z,6.60
2022-11-13T10:55:39.801Z,7.82
2022-11-13T10:58:44.428Z,7.30
2022-11-13T11:01:50.378Z,6.78
2022-11-13T11:08:11.225Z,6.60
2022-11-13T11:14:57.311Z,5.85
2022-11-13T11:18:17.031Z,5.85
2022-11-13T11:21:29.014Z,5.57
2022-11-13T11:24:42.203Z,6.05
2022-11-13T11:27:51.203Z,5.60
2022-11-13T11:31:22.899Z,5.38
2022-11-13T11:34:35.247Z,5.57
2022-11-13T11:38:02.744Z,5.22
2022-11-13T11:41:16.780Z,5.30
2022-11-13T11:44:42.601Z,4.55
2022-11-13T11:47:50.304Z,4.75
2022-11-13T11:51:31.379Z,5.13
2022-11-13T11:55:13.006Z,4.70
2022-11-13T11:59:02.717Z,5.35
2022-11-13T12:02:47.275Z,4.88
2022-11-13T12:06:25.395Z,4.70
2022-11-13T12:09:38.010Z,4.65
2022-11-13T12:13:11.470Z,5.00
2022-11-13T12:16:30.001Z,4.63
2022-11-13T12:19:48.039Z,4.88
2022-11-13T12:22:58.509Z,4.65
2022-11-13T12:26:30.729Z,4.82
2022-11-13T12:29:52.209Z,5.07
2022-11-13T12:33:05.897Z,5.25
2022-11-13T12:36:12.816Z,5.03
2022-11-13T12:39:38.426Z,5.30
2022-11-13T12:45:57.439Z,4.65
2022-11-13T12:49:01.910Z,4.30
2022-11-13T12:52:15.689Z,4.43
2022-11-13T12:55:29.222Z,4.75
2022-11-13T12:58:33.547Z,4.28
2022-11-13T13:01:46.035Z,4.05
2022-11-13T13:05:10.986Z,4.88
2022-11-13T13:11:44.853Z,4.32
2022-11-13T13:15:11.799Z,4.60
2022-11-13T13:18:19.067Z,4.72
2022-11-13T13:21:26.395Z,4.78
2022-11-13T13:24:34.818Z,3.97
2022-11-13T13:27:39.393Z,4.28
2022-11-13T13:31:05.712Z,4.13
2022-11-13T13:34:46.385Z,3.88
2022-11-13T13:38:08.470Z,4.00
2022-11-13T13:41:28.664Z,3.90
2022-11-13T13:44:40.410Z,4.10
2022-11-13T13:47:48.271Z,4.18
2022-11-13T13:50:53.554Z,4.00
2022-11-13T13:53:59.843Z,4.25
2022-11-13T13:57:03.982Z,4.32
2022-11-13T14:00:16.608Z,4.05
2022-11-13T14:03:23.040Z,3.90
2022-11-13T14:06:27.411Z,4.05
2022-11-13T14:09:31.988Z,4.22
2022-11-13T14:15:45.181Z,3.67
2022-11-13T14:21:58.490Z,4.22
2022-11-13T14:25:03.188Z,3.70
2022-11-13T14:31:17.968Z,4.57
2022-11-13T14:34:23.984Z,4.15
2022-11-13T14:37:33.908Z,4.07
2022-11-13T14:40:38.293Z,4.85
2022-11-13T14:43:50.723Z,4.45
2022-11-13T14:47:05.134Z,4.57
2022-11-13T14:50:20.824Z,4.53
2022-11-13T14:53:34.624Z,5.43
2022-11-13T14:56:43.324Z,5.50
2022-11-13T14:59:47.544Z,5.13
2022-11-13T15:02:51.782Z,5.85
2022-11-13T15:05:56.333Z,5.53
2022-11-13T15:09:00.971Z,6.28
2022-11-13T15:12:05.346Z,6.20
2022-11-13T15:15:14.858Z,6.95
2022-11-13T15:18:20.386Z,6.63
2022-11-13T15:21:24.959Z,7.75
2022-11-13T15:24:29.290Z,7.60
2022-11-13T15:27:38.969Z,8.63
2022-11-13T15:30:47.160Z,8.85
2022-11-13T15:33:51.306Z,9.00
2022-11-13T15:36:55.984Z,7.97
2022-11-13T15:40:00.567Z,9.50
2022-11-13T15:43:06.260Z,8.75
2022-11-13T15:46:16.117Z,8.95
2022-11-13T15:49:20.158Z,8.43
2022-11-13T15:52:26.474Z,8.95
2022-11-13T15:55:32.086Z,9.02
2022-11-13T15:58:37.684Z,9.07
2022-11-13T16:01:42.479Z,10.38
2022-11-13T16:04:56.087Z,9.05
2022-11-13T16:08:01.126Z,9.38
2022-11-13T16:11:05.588Z,10.25
2022-11-13T16:14:10.900Z,10.13
2022-11-13T16:17:20.790Z,10.18
2022-11-13T16:20:25.171Z,9.85
2022-11-13T16:23:30.502Z,11.15
2022-11-13T16:26:34.865Z,10.18
2022-11-13T16:29:39.131Z,10.13
2022-11-13T16:32:43.331Z,10.35
2022-11-13T16:35:49.150Z,10.50
2022-11-13T16:38:55.600Z,9.52
2022-11-13T16:42:00.157Z,10.25
2022-11-13T16:45:04.952Z,10.30
2022-11-13T16:48:15.977Z,9.82
2022-11-13T16:51:20.403Z,9.38
2022-11-13T16:54:27.397Z,9.52
2022-11-13T16:57:31.746Z,10.85
2022-11-13T17:00:36.014Z,11.07
2022-11-13T17:03:40.329Z,10.38
2022-11-13T17:06:44.825Z,10.90
2022-11-13T17:09:58.899Z,13.18
2022-11-13T17:13:09.866Z,13.00
2022-11-13T17:16:14.679Z,13.43
2022-11-13T17:19:19.398Z,13.00
2022-11-13T17:22:23.838Z,13.55
2022-11-13T17:25:28.367Z,13.82
2022-11-13T17:28:32.837Z,17.83
2022-11-13T17:31:37.433Z,14.88
2022-11-13T17:34:44.785Z,13.48
2022-11-13T17:37:49.157Z,14.13
2022-11-13T17:40:56.373Z,12.63
2022-11-13T17:44:03.498Z,12.45
2022-11-13T17:47:08.258Z,13.90
2022-11-13T17:50:12.970Z,13.05
2022-11-13T17:53:17.159Z,16.63
2022-11-13T17:56:21.398Z,15.02
2022-11-13T17:59:25.759Z,16.20
2022-11-13T18:02:30.563Z,25.20
2022-11-13T18:05:40.556Z,24.33
2022-11-13T18:08:45.638Z,23.27
2022-11-13T18:11:49.794Z,20.10
2022-11-13T18:14:56.991Z,20.63
2022-11-13T18:18:01.241Z,19.58
2022-11-13T18:21:23.915Z,21.23
2022-11-13T18:24:28.150Z,21.08
2022-11-13T18:27:32.547Z,21.23
2022-11-13T18:30:39.262Z,19.08
2022-11-13T18:33:44.461Z,15.88
2022-11-13T18:36:49.101Z,15.97
2022-11-13T18:39:53.458Z,14.90
2022-11-13T18:42:57.315Z,16.92
2022-11-13T18:46:07.074Z,19.80
2022-11-13T18:49:11.162Z,22.45
2022-11-13T18:52:15.967Z,19.35
2022-11-13T18:55:20.190Z,22.80
2022-11-13T18:58:24.878Z,21.88
2022-11-13T19:01:31.766Z,20.75
2022-11-13T19:04:36.299Z,19.67
2022-11-13T19:07:40.820Z,16.52
2022-11-13T19:10:44.978Z,17.17
2022-11-13T19:13:49.838Z,18.52
2022-11-13T19:16:53.890Z,20.05
2022-11-13T19:19:58.526Z,20.05
2022-11-13T19:23:07.882Z,21.23
2022-11-13T19:26:13.153Z,20.92
2022-11-13T19:29:17.517Z,21.00
2022-11-13T19:32:22.136Z,21.92
2022-11-13T19:35:26.947Z,24.40
2022-11-13T19:38:31.752Z,25.65
2022-11-13T19:41:36.260Z,25.85
2022-11-13T19:44:40.307Z,24.88
2022-11-13T19:47:44.696Z,23.50
2022-11-13T19:50:49.482Z,25.30
2022-11-13T19:53:55.902Z,21.90
2022-11-13T19:57:00.230Z,23.58
2022-11-13T20:00:09.055Z,26.27
2022-11-13T20:03:16.490Z,27.48
2022-11-13T20:06:21.037Z,23.27
2022-11-13T20:09:25.354Z,22.67
2022-11-13T20:12:30.562Z,20.38
2022-11-13T20:15:35.257Z,24.63
2022-11-13T20:18:41.266Z,19.23
2022-11-13T20:21:45.793Z,18.50
2022-11-13T20:24:50.280Z,17.38
2022-11-13T20:27:59.608Z,17.60
2022-11-13T20:31:20.368Z,18.40
2022-11-13T20:34:24.835Z,17.05
2022-11-13T20:37:29.016Z,16.50
2022-11-13T20:40:33.542Z,15.95
2022-11-13T20:43:38.507Z,17.88
2022-11-13T20:46:43.038Z,17.75
2022-11-13T20:49:47.812Z,18.00
2022-11-13T20:52:52.177Z,18.70
2022-11-13T20:55:56.645Z,19.13
2022-11-13T20:59:03.970Z,20.48
2022-11-13T21:02:10.477Z,20.65
2022-11-13T21:05:15.325Z,20.00
2022-11-13T21:08:19.915Z,21.05
2022-11-13T21:11:29.411Z,20.27
2022-11-13T21:14:33.831Z,19.95
2022-11-13T21:17:38.190Z,19.63
2022-11-13T21:20:42.326Z,21.52
2022-11-13T21:23:47.784Z,20.67
2022-11-13T21:26:52.006Z,23.55
2022-11-13T21:29:56.643Z,22.10
2022-11-13T21:33:01.205Z,21.38
2022-11-13T21:36:23.223Z,21.02
2022-11-13T21:39:27.121Z,21.00
2022-11-13T21:42:31.872Z,21.75
2022-11-13T21:45:36.046Z,21.85
2022-11-13T21:48:41.891Z,21.83
2022-11-13T21:51:45.769Z,22.92
2022-11-13T21:54:49.914Z,23.05
2022-11-13T21:57:54.421Z,22.35
2022-11-13T22:00:59.567Z,22.63
2022-11-13T22:04:03.897Z,18.48
2022-11-13T22:07:08.311Z,23.95
2022-11-13T22:10:12.830Z,22.63
2022-11-13T22:13:17.445Z,22.00
2022-11-13T22:16:22.741Z,22.70
2022-11-13T22:19:30.155Z,21.65
2022-11-13T22:22:36.879Z,23.80
2022-11-13T22:25:41.495Z,23.25
2022-11-13T22:28:46.932Z,23.67
2022-11-13T22:34:55.315Z,23.63
2022-11-13T22:38:02.157Z,23.60
2022-11-13T22:41:13.075Z,23.88
2022-11-13T22:44:22.447Z,25.50
2022-11-13T22:47:26.719Z,24.25
2022-11-13T22:50:31.226Z,25.33
2022-11-13T22:53:36.198Z,25.52
2022-11-13T22:56:41.639Z,24.58
2022-11-13T22:59:45.791Z,25.38
2022-11-13T23:02:50.389Z,24.38
2022-11-13T23:05:59.058Z,24.75
2022-11-13T23:09:04.400Z,24.80
2022-11-13T23:12:12.697Z,26.35
2022-11-13T23:15:16.874Z,24.25
2022-11-13T23:18:21.430Z,25.23
2022-11-13T23:21:29.943Z,24.23
2022-11-13T23:24:34.060Z,24.05
2022-11-13T23:27:38.590Z,22.60
2022-11-13T23:30:42.867Z,23.15
2022-11-13T23:33:47.502Z,21.85
2022-11-13T23:36:52.287Z,22.80
2022-11-13T23:39:56.783Z,22.48
2022-11-13T23:43:03.674Z,21.60
2022-11-13T23:46:07.860Z,22.38
2022-11-13T23:49:12.554Z,21.95
2022-11-13T23:52:16.688Z,21.10
2022-11-13T23:55:21.414Z,20.58
2022-11-13T23:58:26.301Z,21.35
